sensor_id;sensor_type;location;lat;lon;timestamp;pressure;altitude;pressure_sealevel;temperature;humidity
15050;BME280;7622;42.724;23.250;2023-04-27T00:01:17;94386.91;;;8.00;81.41
15050;BME280;7622;42.724;23.250;2023-04-27T00:03:44;94379.00;;;7.92;82.63
15050;BME280;7622;42.724;23.250;2023-04-27T00:06:11;94383.31;;;7.82;81.89
15050;BME280;7622;42.724;23.250;2023-04-27T00:08:39;94379.50;;;7.76;83.27
15050;BME280;7622;42.724;23.250;2023-04-27T00:11:06;94375.94;;;7.68;84.49
15050;BME280;7622;42.724;23.250;2023-04-27T00:13:33;94379.34;;;7.59;84.76
15050;BME280;7622;42.724;23.250;2023-04-27T00:16:00;94384.50;;;7.59;84.43
15050;BME280;7622;42.724;23.250;2023-04-27T00:18:28;94387.34;;;7.46;86.62
15050;BME280;7622;42.724;23.250;2023-04-27T00:20:55;94389.34;;;7.42;87.22
15050;BME280;7622;42.724;23.250;2023-04-27T00:23:22;94390.00;;;7.35;88.40
15050;BME280;7622;42.724;23.250;2023-04-27T00:25:50;94392.72;;;7.33;89.51
15050;BME280;7622;42.724;23.250;2023-04-27T00:28:17;94333.81;;;6.87;89.90
15050;BME280;7622;42.724;23.250;2023-04-27T00:30:43;94390.28;;;7.32;90.57
15050;BME280;7622;42.724;23.250;2023-04-27T00:33:10;94387.25;;;7.27;90.06
15050;BME280;7622;42.724;23.250;2023-04-27T00:35:37;94401.31;;;7.13;92.93
15050;BME280;7622;42.724;23.250;2023-04-27T00:38:04;94379.31;;;7.09;93.57
15050;BME280;7622;42.724;23.250;2023-04-27T00:40:31;94390.84;;;7.05;94.67
15050;BME280;7622;42.724;23.250;2023-04-27T00:42:59;94383.59;;;6.99;93.96
15050;BME280;7622;42.724;23.250;2023-04-27T00:45:25;94391.34;;;6.99;94.81
15050;BME280;7622;42.724;23.250;2023-04-27T00:47:52;94388.00;;;6.78;96.46
15050;BME280;7622;42.724;23.250;2023-04-27T00:50:23;94398.22;;;6.89;95.86
15050;BME280;7622;42.724;23.250;2023-04-27T00:52:53;94389.72;;;6.98;95.34
15050;BME280;7622;42.724;23.250;2023-04-27T00:55:20;94394.72;;;6.90;94.67
15050;BME280;7622;42.724;23.250;2023-04-27T00:57:46;94393.59;;;6.83;96.47
15050;BME280;7622;42.724;23.250;2023-04-27T01:00:15;94400.63;;;6.81;97.94
15050;BME280;7622;42.724;23.250;2023-04-27T01:02:41;94397.63;;;6.76;98.06
15050;BME280;7622;42.724;23.250;2023-04-27T01:05:09;94399.25;;;6.77;97.98
15050;BME280;7622;42.724;23.250;2023-04-27T01:07:36;94396.72;;;6.65;99.20
15050;BME280;7622;42.724;23.250;2023-04-27T01:10:04;94396.59;;;6.46;100.00
15050;BME280;7622;42.724;23.250;2023-04-27T01:12:31;94410.53;;;6.55;100.00
15050;BME280;7622;42.724;23.250;2023-04-27T01:14:58;94401.53;;;6.49;100.00
15050;BME280;7622;42.724;23.250;2023-04-27T01:17:26;94414.44;;;6.49;100.00
15050;BME280;7622;42.724;23.250;2023-04-27T01:19:53;94413.22;;;6.53;100.00
15050;BME280;7622;42.724;23.250;2023-04-27T01:22:21;94405.53;;;6.42;100.00
15050;BME280;7622;42.724;23.250;2023-04-27T01:24:49;94413.03;;;6.45;100.00
15050;BME280;7622;42.724;23.250;2023-04-27T01:27:16;94405.59;;;6.52;100.00
15050;BME280;7622;42.724;23.250;2023-04-27T01:29:43;94413.72;;;6.47;100.00
15050;BME280;7622;42.724;23.250;2023-04-27T01:32:09;94416.09;;;6.39;100.00
15050;BME280;7622;42.724;23.250;2023-04-27T01:34:37;94421.16;;;6.29;100.00
15050;BME280;7622;42.724;23.250;2023-04-27T01:37:04;94413.81;;;6.25;100.00
15050;BME280;7622;42.724;23.250;2023-04-27T01:39:31;94412.19;;;6.24;100.00
15050;BME280;7622;42.724;23.250;2023-04-27T01:41:59;94409.28;;;6.17;100.00
15050;BME280;7622;42.724;23.250;2023-04-27T01:44:27;94413.38;;;6.20;100.00
15050;BME280;7622;42.724;23.250;2023-04-27T01:46:53;94416.69;;;6.11;100.00
15050;BME280;7622;42.724;23.250;2023-04-27T01:49:20;94346.47;;;5.86;100.00
15050;BME280;7622;42.724;23.250;2023-04-27T01:51:47;94421.56;;;6.25;100.00
15050;BME280;7622;42.724;23.250;2023-04-27T01:54:14;94428.28;;;6.37;100.00
15050;BME280;7622;42.724;23.250;2023-04-27T01:56:40;94394.81;;;6.26;100.00
15050;BME280;7622;42.724;23.250;2023-04-27T01:59:09;94423.72;;;6.41;100.00
15050;BME280;7622;42.724;23.250;2023-04-27T02:01:35;94421.75;;;6.33;100.00
15050;BME280;7622;42.724;23.250;2023-04-27T02:04:02;94420.28;;;6.19;100.00
15050;BME280;7622;42.724;23.250;2023-04-27T02:06:29;94428.47;;;6.24;100.00
15050;BME280;7622;42.724;23.250;2023-04-27T02:08:57;94421.34;;;6.17;100.00
15050;BME280;7622;42.724;23.250;2023-04-27T02:11:24;94423.91;;;6.28;99.51
15050;BME280;7622;42.724;23.250;2023-04-27T02:13:51;94427.53;;;6.25;99.73
15050;BME280;7622;42.724;23.250;2023-04-27T02:16:19;94429.69;;;6.41;98.01
15050;BME280;7622;42.724;23.250;2023-04-27T02:18:46;94431.13;;;6.34;98.46
15050;BME280;7622;42.724;23.250;2023-04-27T02:21:13;94421.56;;;6.25;98.51
15050;BME280;7622;42.724;23.250;2023-04-27T02:23:40;94434.53;;;6.35;97.06
15050;BME280;7622;42.724;23.250;2023-04-27T02:26:07;94435.41;;;6.45;95.59
15050;BME280;7622;42.724;23.250;2023-04-27T02:28:33;94439.03;;;6.53;94.78
15050;BME280;7622;42.724;23.250;2023-04-27T02:31:00;94432.59;;;6.48;94.24
15050;BME280;7622;42.724;23.250;2023-04-27T02:33:28;94434.25;;;6.49;96.30
15050;BME280;7622;42.724;23.250;2023-04-27T02:35:55;94433.16;;;6.51;94.46
15050;BME280;7622;42.724;23.250;2023-04-27T02:38:22;94431.03;;;6.56;93.38
15050;BME280;7622;42.724;23.250;2023-04-27T02:40:52;94437.16;;;6.55;92.15
15050;BME280;7622;42.724;23.250;2023-04-27T02:43:19;94440.53;;;6.35;95.56
15050;BME280;7622;42.724;23.250;2023-04-27T02:45:46;94445.41;;;6.38;94.47
15050;BME280;7622;42.724;23.250;2023-04-27T02:48:12;94437.72;;;6.27;95.45
15050;BME280;7622;42.724;23.250;2023-04-27T02:50:41;94434.44;;;6.25;94.92
15050;BME280;7622;42.724;23.250;2023-04-27T02:53:08;94449.59;;;6.18;97.12
15050;BME280;7622;42.724;23.250;2023-04-27T02:55:35;94450.53;;;6.17;97.29
15050;BME280;7622;42.724;23.250;2023-04-27T02:58:02;94442.19;;;6.25;96.80
15050;BME280;7622;42.724;23.250;2023-04-27T03:00:29;94446.31;;;6.16;97.96
15050;BME280;7622;42.724;23.250;2023-04-27T03:02:56;94447.06;;;6.07;100.00
15050;BME280;7622;42.724;23.250;2023-04-27T03:05:24;94449.31;;;5.89;100.00
15050;BME280;7622;42.724;23.250;2023-04-27T03:07:54;94453.53;;;5.79;100.00
15050;BME280;7622;42.724;23.250;2023-04-27T03:10:20;94446.84;;;5.77;100.00
15050;BME280;7622;42.724;23.250;2023-04-27T03:12:48;94450.03;;;5.80;100.00
15050;BME280;7622;42.724;23.250;2023-04-27T03:15:18;94453.44;;;5.70;100.00
15050;BME280;7622;42.724;23.250;2023-04-27T03:17:46;94456.44;;;5.75;100.00
15050;BME280;7622;42.724;23.250;2023-04-27T03:20:13;94451.22;;;5.65;100.00
15050;BME280;7622;42.724;23.250;2023-04-27T03:22:40;94460.09;;;5.61;100.00
15050;BME280;7622;42.724;23.250;2023-04-27T03:25:09;94465.03;;;5.64;100.00
15050;BME280;7622;42.724;23.250;2023-04-27T03:27:35;94473.22;;;5.69;100.00
15050;BME280;7622;42.724;23.250;2023-04-27T03:30:03;94473.47;;;5.66;100.00
15050;BME280;7622;42.724;23.250;2023-04-27T03:32:30;94474.84;;;5.70;100.00
15050;BME280;7622;42.724;23.250;2023-04-27T03:34:57;94490.09;;;5.62;100.00
15050;BME280;7622;42.724;23.250;2023-04-27T03:37:24;94486.66;;;5.84;100.00
15050;BME280;7622;42.724;23.250;2023-04-27T03:39:51;94478.38;;;5.80;100.00
15050;BME280;7622;42.724;23.250;2023-04-27T03:42:19;94479.78;;;5.73;100.00
15050;BME280;7622;42.724;23.250;2023-04-27T03:44:46;94485.97;;;5.71;100.00
15050;BME280;7622;42.724;23.250;2023-04-27T03:47:13;94495.00;;;5.65;100.00
15050;BME280;7622;42.724;23.250;2023-04-27T03:49:40;94491.75;;;5.52;100.00
15050;BME280;7622;42.724;23.250;2023-04-27T03:52:06;94496.28;;;5.48;100.00
15050;BME280;7622;42.724;23.250;2023-04-27T03:54:33;94503.81;;;5.51;100.00
15050;BME280;7622;42.724;23.250;2023-04-27T03:57:00;94504.59;;;5.63;100.00
15050;BME280;7622;42.724;23.250;2023-04-27T03:59:30;94505.66;;;5.72;100.00
15050;BME280;7622;42.724;23.250;2023-04-27T04:01:56;94505.41;;;5.86;100.00
15050;BME280;7622;42.724;23.250;2023-04-27T04:04:23;94519.50;;;5.60;100.00
15050;BME280;7622;42.724;23.250;2023-04-27T04:06:50;94520.06;;;5.63;100.00
15050;BME280;7622;42.724;23.250;2023-04-27T04:09:17;94527.78;;;5.74;100.00
15050;BME280;7622;42.724;23.250;2023-04-27T04:11:44;94517.50;;;5.97;100.00
15050;BME280;7622;42.724;23.250;2023-04-27T04:14:11;94522.53;;;5.87;100.00
15050;BME280;7622;42.724;23.250;2023-04-27T04:16:39;94521.72;;;5.98;100.00
15050;BME280;7622;42.724;23.250;2023-04-27T04:19:06;94518.84;;;6.34;100.00
15050;BME280;7622;42.724;23.250;2023-04-27T04:21:33;94531.38;;;6.70;97.64
15050;BME280;7622;42.724;23.250;2023-04-27T04:23:59;94534.81;;;7.12;93.35
15050;BME280;7622;42.724;23.250;2023-04-27T04:26:26;94529.94;;;7.40;88.22
15050;BME280;7622;42.724;23.250;2023-04-27T04:28:53;94530.84;;;7.80;84.60
15050;BME280;7622;42.724;23.250;2023-04-27T04:31:20;94533.91;;;8.05;79.97
15050;BME280;7622;42.724;23.250;2023-04-27T04:33:48;94541.13;;;8.41;77.39
15050;BME280;7622;42.724;23.250;2023-04-27T04:36:16;94544.69;;;8.50;76.85
15050;BME280;7622;42.724;23.250;2023-04-27T04:38:42;94542.53;;;8.74;74.40
15050;BME280;7622;42.724;23.250;2023-04-27T04:41:10;94542.53;;;8.93;70.17
15050;BME280;7622;42.724;23.250;2023-04-27T04:43:36;94545.53;;;8.98;70.60
15050;BME280;7622;42.724;23.250;2023-04-27T04:46:03;94543.63;;;8.81;72.37
15050;BME280;7622;42.724;23.250;2023-04-27T04:48:30;94548.50;;;9.13;69.76
15050;BME280;7622;42.724;23.250;2023-04-27T04:50:58;94553.91;;;9.58;68.78
15050;BME280;7622;42.724;23.250;2023-04-27T04:53:25;94549.97;;;10.01;73.64
15050;BME280;7622;42.724;23.250;2023-04-27T04:55:52;94546.91;;;10.15;65.79
15050;BME280;7622;42.724;23.250;2023-04-27T04:58:19;94560.41;;;10.28;66.00
15050;BME280;7622;42.724;23.250;2023-04-27T05:00:46;94568.34;;;10.17;65.42
15050;BME280;7622;42.724;23.250;2023-04-27T05:03:12;94565.09;;;10.87;63.02
15050;BME280;7622;42.724;23.250;2023-04-27T05:05:39;94568.19;;;10.73;62.73
15050;BME280;7622;42.724;23.250;2023-04-27T05:08:07;94563.66;;;10.57;63.52
15050;BME280;7622;42.724;23.250;2023-04-27T05:10:34;94573.38;;;10.73;61.96
15050;BME280;7622;42.724;23.250;2023-04-27T05:13:01;94570.75;;;10.83;62.91
15050;BME280;7622;42.724;23.250;2023-04-27T05:15:28;94576.03;;;10.91;62.20
15050;BME280;7622;42.724;23.250;2023-04-27T05:17:55;94562.75;;;10.12;61.95
15050;BME280;7622;42.724;23.250;2023-04-27T05:20:21;94585.97;;;10.23;62.92
15050;BME280;7622;42.724;23.250;2023-04-27T05:22:48;94571.31;;;9.85;63.68
15050;BME280;7622;42.724;23.250;2023-04-27T05:25:16;94581.34;;;10.17;63.78
15050;BME280;7622;42.724;23.250;2023-04-27T05:27:43;94583.78;;;9.81;64.36
15050;BME280;7622;42.724;23.250;2023-04-27T05:30:11;94578.94;;;9.40;65.49
15050;BME280;7622;42.724;23.250;2023-04-27T05:32:39;94580.44;;;8.94;68.72
15050;BME280;7622;42.724;23.250;2023-04-27T05:35:06;94521.41;;;8.50;70.33
15050;BME280;7622;42.724;23.250;2023-04-27T05:37:34;94449.53;;;7.64;72.73
15050;BME280;7622;42.724;23.250;2023-04-27T05:40:01;94454.53;;;8.05;72.72
15050;BME280;7622;42.724;23.250;2023-04-27T05:42:29;94585.66;;;8.45;74.65
15050;BME280;7622;42.724;23.250;2023-04-27T05:44:56;94589.88;;;8.46;74.28
15050;BME280;7622;42.724;23.250;2023-04-27T05:47:23;94568.78;;;8.41;74.00
15050;BME280;7622;42.724;23.250;2023-04-27T05:49:50;94583.88;;;8.45;74.50
15050;BME280;7622;42.724;23.250;2023-04-27T05:52:17;94564.88;;;8.25;75.70
15050;BME280;7622;42.724;23.250;2023-04-27T05:54:45;94582.84;;;8.57;74.33
15050;BME280;7622;42.724;23.250;2023-04-27T05:57:12;94571.91;;;8.44;72.99
15050;BME280;7622;42.724;23.250;2023-04-27T05:59:41;94587.78;;;8.89;71.35
15050;BME280;7622;42.724;23.250;2023-04-27T06:02:08;94597.63;;;8.95;68.85
15050;BME280;7622;42.724;23.250;2023-04-27T06:04:35;94590.69;;;9.05;68.77
15050;BME280;7622;42.724;23.250;2023-04-27T06:07:06;94591.31;;;8.79;68.65
15050;BME280;7622;42.724;23.250;2023-04-27T06:09:33;94595.44;;;9.29;67.36
15050;BME280;7622;42.724;23.250;2023-04-27T06:11:59;94594.59;;;9.48;66.24
15050;BME280;7622;42.724;23.250;2023-04-27T06:14:27;94592.13;;;9.56;64.90
15050;BME280;7622;42.724;23.250;2023-04-27T06:16:55;94586.69;;;9.59;64.87
15050;BME280;7622;42.724;23.250;2023-04-27T06:19:22;94561.53;;;9.69;63.67
15050;BME280;7622;42.724;23.250;2023-04-27T06:21:49;94592.31;;;10.01;62.49
15050;BME280;7622;42.724;23.250;2023-04-27T06:24:16;94587.63;;;10.05;62.38
15050;BME280;7622;42.724;23.250;2023-04-27T06:26:43;94584.03;;;10.25;61.48
15050;BME280;7622;42.724;23.250;2023-04-27T06:29:09;94578.69;;;10.36;61.08
15050;BME280;7622;42.724;23.250;2023-04-27T06:31:36;94581.28;;;10.36;61.80
15050;BME280;7622;42.724;23.250;2023-04-27T06:34:05;94579.53;;;10.27;61.04
15050;BME280;7622;42.724;23.250;2023-04-27T06:36:32;94584.06;;;10.15;60.15
15050;BME280;7622;42.724;23.250;2023-04-27T06:38:59;94574.81;;;10.68;60.09
15050;BME280;7622;42.724;23.250;2023-04-27T06:41:26;94583.09;;;10.98;58.74
15050;BME280;7622;42.724;23.250;2023-04-27T06:43:52;94571.97;;;11.50;56.72
15050;BME280;7622;42.724;23.250;2023-04-27T06:46:19;94569.72;;;11.98;54.87
15050;BME280;7622;42.724;23.250;2023-04-27T06:48:46;94558.59;;;12.56;54.23
15050;BME280;7622;42.724;23.250;2023-04-27T06:51:14;94561.88;;;12.58;53.20
15050;BME280;7622;42.724;23.250;2023-04-27T06:53:41;94564.50;;;12.74;53.28
15050;BME280;7622;42.724;23.250;2023-04-27T06:56:10;94563.94;;;13.05;52.55
15050;BME280;7622;42.724;23.250;2023-04-27T06:58:37;94558.47;;;13.32;52.51
15050;BME280;7622;42.724;23.250;2023-04-27T07:01:04;94563.00;;;13.70;51.16
15050;BME280;7622;42.724;23.250;2023-04-27T07:03:33;94569.38;;;13.52;50.45
15050;BME280;7622;42.724;23.250;2023-04-27T07:06:00;94552.81;;;14.16;49.96
15050;BME280;7622;42.724;23.250;2023-04-27T07:08:28;94558.34;;;14.13;49.58
15050;BME280;7622;42.724;23.250;2023-04-27T07:10:55;94559.22;;;14.52;48.66
15050;BME280;7622;42.724;23.250;2023-04-27T07:13:22;94555.44;;;14.63;47.88
15050;BME280;7622;42.724;23.250;2023-04-27T07:15:53;94550.63;;;14.75;47.41
15050;BME280;7622;42.724;23.250;2023-04-27T07:18:21;94557.53;;;14.68;46.94
15050;BME280;7622;42.724;23.250;2023-04-27T07:20:48;94560.53;;;14.56;47.22
15050;BME280;7622;42.724;23.250;2023-04-27T07:23:15;94568.38;;;14.56;47.11
15050;BME280;7622;42.724;23.250;2023-04-27T07:25:43;94566.25;;;13.89;47.85
15050;BME280;7622;42.724;23.250;2023-04-27T07:28:10;94564.78;;;13.94;48.16
15050;BME280;7622;42.724;23.250;2023-04-27T07:30:38;94574.06;;;13.97;47.73
15050;BME280;7622;42.724;23.250;2023-04-27T07:33:05;94569.78;;;14.20;47.66
15050;BME280;7622;42.724;23.250;2023-04-27T07:35:31;94558.59;;;13.87;47.90
15050;BME280;7622;42.724;23.250;2023-04-27T07:37:59;94545.38;;;13.89;46.97
15050;BME280;7622;42.724;23.250;2023-04-27T07:40:27;94566.78;;;13.76;48.35
15050;BME280;7622;42.724;23.250;2023-04-27T07:42:55;94571.16;;;13.43;47.84
15050;BME280;7622;42.724;23.250;2023-04-27T07:45:22;94571.88;;;14.25;47.06
15050;BME280;7622;42.724;23.250;2023-04-27T07:47:56;94561.25;;;14.73;47.01
15050;BME280;7622;42.724;23.250;2023-04-27T07:50:24;94556.81;;;15.58;45.74
15050;BME280;7622;42.724;23.250;2023-04-27T07:52:51;94560.63;;;15.25;44.54
15050;BME280;7622;42.724;23.250;2023-04-27T07:55:19;94558.06;;;16.00;43.87
15050;BME280;7622;42.724;23.250;2023-04-27T07:57:46;94567.38;;;16.02;43.73
15050;BME280;7622;42.724;23.250;2023-04-27T08:00:15;94559.34;;;16.19;43.91
15050;BME280;7622;42.724;23.250;2023-04-27T08:02:42;94554.41;;;16.24;43.29
15050;BME280;7622;42.724;23.250;2023-04-27T08:05:09;94551.34;;;16.64;43.12
15050;BME280;7622;42.724;23.250;2023-04-27T08:07:35;94567.31;;;16.10;43.30
15050;BME280;7622;42.724;23.250;2023-04-27T08:10:03;94571.44;;;15.90;44.15
15050;BME280;7622;42.724;23.250;2023-04-27T08:12:31;94574.88;;;16.05;43.87
15050;BME280;7622;42.724;23.250;2023-04-27T08:14:58;94558.81;;;16.67;42.22
15050;BME280;7622;42.724;23.250;2023-04-27T08:17:26;94566.13;;;16.42;41.94
15050;BME280;7622;42.724;23.250;2023-04-27T08:19:53;94565.03;;;16.81;42.27
15050;BME280;7622;42.724;23.250;2023-04-27T08:22:19;94556.75;;;16.63;42.77
15050;BME280;7622;42.724;23.250;2023-04-27T08:24:46;94559.16;;;16.93;43.11
15050;BME280;7622;42.724;23.250;2023-04-27T08:27:13;94536.34;;;17.37;42.23
15050;BME280;7622;42.724;23.250;2023-04-27T08:29:44;94560.53;;;16.75;42.84
15050;BME280;7622;42.724;23.250;2023-04-27T08:32:12;94540.91;;;16.56;42.80
15050;BME280;7622;42.724;23.250;2023-04-27T08:34:40;94549.84;;;15.88;44.69
15050;BME280;7622;42.724;23.250;2023-04-27T08:37:10;94544.53;;;15.59;43.71
15050;BME280;7622;42.724;23.250;2023-04-27T08:39:39;94559.22;;;15.97;43.60
15050;BME280;7622;42.724;23.250;2023-04-27T08:42:11;94553.41;;;15.50;44.31
15050;BME280;7622;42.724;23.250;2023-04-27T08:44:38;94563.06;;;15.72;44.53
15050;BME280;7622;42.724;23.250;2023-04-27T08:47:05;94566.53;;;15.87;44.21
15050;BME280;7622;42.724;23.250;2023-04-27T08:49:33;94561.72;;;16.43;42.77
15050;BME280;7622;42.724;23.250;2023-04-27T08:52:01;94560.84;;;16.65;42.84
15050;BME280;7622;42.724;23.250;2023-04-27T08:54:28;94560.16;;;16.92;41.85
15050;BME280;7622;42.724;23.250;2023-04-27T08:56:55;94551.72;;;17.76;41.44
15050;BME280;7622;42.724;23.250;2023-04-27T08:59:22;94555.31;;;18.58;40.79
15050;BME280;7622;42.724;23.250;2023-04-27T09:01:48;94569.13;;;18.04;39.96
15050;BME280;7622;42.724;23.250;2023-04-27T09:04:15;94534.44;;;17.66;40.57
15050;BME280;7622;42.724;23.250;2023-04-27T09:06:43;94558.53;;;17.98;40.16
15050;BME280;7622;42.724;23.250;2023-04-27T09:09:20;94546.63;;;17.31;41.08
15050;BME280;7622;42.724;23.250;2023-04-27T09:11:47;94554.91;;;16.92;41.93
15050;BME280;7622;42.724;23.250;2023-04-27T09:14:16;94561.50;;;16.88;41.35
15050;BME280;7622;42.724;23.250;2023-04-27T09:16:43;94555.88;;;17.27;41.03
15050;BME280;7622;42.724;23.250;2023-04-27T09:19:09;94545.75;;;16.88;40.94
15050;BME280;7622;42.724;23.250;2023-04-27T09:21:36;94533.88;;;16.71;41.25
15050;BME280;7622;42.724;23.250;2023-04-27T09:24:09;94543.81;;;17.76;40.55
15050;BME280;7622;42.724;23.250;2023-04-27T09:26:38;94546.91;;;16.65;42.08
15050;BME280;7622;42.724;23.250;2023-04-27T09:29:07;94547.78;;;16.57;42.21
15050;BME280;7622;42.724;23.250;2023-04-27T09:31:34;94546.81;;;16.73;41.01
15050;BME280;7622;42.724;23.250;2023-04-27T09:34:02;94547.44;;;16.31;41.69
15050;BME280;7622;42.724;23.250;2023-04-27T09:36:29;94542.47;;;17.01;41.05
15050;BME280;7622;42.724;23.250;2023-04-27T09:38:57;94540.44;;;17.18;40.68
15050;BME280;7622;42.724;23.250;2023-04-27T09:41:24;94532.59;;;16.67;41.41
15050;BME280;7622;42.724;23.250;2023-04-27T09:43:54;94536.63;;;16.84;41.21
15050;BME280;7622;42.724;23.250;2023-04-27T09:46:21;94524.91;;;16.36;41.24
15050;BME280;7622;42.724;23.250;2023-04-27T09:48:49;94526.81;;;16.57;41.94
15050;BME280;7622;42.724;23.250;2023-04-27T09:51:18;94515.59;;;16.63;42.06
15050;BME280;7622;42.724;23.250;2023-04-27T09:53:49;94515.00;;;16.17;41.95
15050;BME280;7622;42.724;23.250;2023-04-27T09:56:25;94516.28;;;16.86;40.38
15050;BME280;7622;42.724;23.250;2023-04-27T09:59:09;94521.75;;;16.41;41.07
15050;BME280;7622;42.724;23.250;2023-04-27T10:01:44;94526.91;;;15.90;42.15
15050;BME280;7622;42.724;23.250;2023-04-27T10:04:29;94521.22;;;15.26;43.43
15050;BME280;7622;42.724;23.250;2023-04-27T10:07:01;94529.72;;;16.03;41.87
15050;BME280;7622;42.724;23.250;2023-04-27T10:09:34;94515.41;;;17.22;44.83
15050;BME280;7622;42.724;23.250;2023-04-27T10:12:13;94511.19;;;17.42;40.38
15050;BME280;7622;42.724;23.250;2023-04-27T10:14:49;94505.81;;;17.78;39.67
15050;BME280;7622;42.724;23.250;2023-04-27T10:17:16;94522.69;;;18.18;38.56
15050;BME280;7622;42.724;23.250;2023-04-27T10:19:52;94507.63;;;17.78;39.74
15050;BME280;7622;42.724;23.250;2023-04-27T10:22:21;94520.16;;;18.03;39.30
15050;BME280;7622;42.724;23.250;2023-04-27T10:24:49;94521.03;;;17.83;38.24
15050;BME280;7622;42.724;23.250;2023-04-27T10:27:18;94520.06;;;17.62;38.74
15050;BME280;7622;42.724;23.250;2023-04-27T10:29:49;94515.81;;;17.40;38.36
15050;BME280;7622;42.724;23.250;2023-04-27T10:32:21;94514.53;;;17.57;38.56
15050;BME280;7622;42.724;23.250;2023-04-27T10:34:49;94511.84;;;17.72;38.65
15050;BME280;7622;42.724;23.250;2023-04-27T10:37:18;94515.88;;;17.68;38.95
15050;BME280;7622;42.724;23.250;2023-04-27T10:39:49;94514.25;;;17.67;38.00
15050;BME280;7622;42.724;23.250;2023-04-27T10:42:25;94520.38;;;17.74;37.60
15050;BME280;7622;42.724;23.250;2023-04-27T10:44:56;94512.31;;;18.10;37.12
15050;BME280;7622;42.724;23.250;2023-04-27T10:47:23;94516.91;;;18.70;36.44
15050;BME280;7622;42.724;23.250;2023-04-27T10:49:51;94507.25;;;18.91;36.49
15050;BME280;7622;42.724;23.250;2023-04-27T10:52:18;94522.22;;;18.90;36.29
15050;BME280;7622;42.724;23.250;2023-04-27T10:54:45;94523.91;;;19.04;35.68
15050;BME280;7622;42.724;23.250;2023-04-27T10:57:12;94516.50;;;18.67;36.62
15050;BME280;7622;42.724;23.250;2023-04-27T10:59:47;94516.28;;;19.42;35.70
15050;BME280;7622;42.724;23.250;2023-04-27T11:02:16;94522.41;;;18.41;37.57
15050;BME280;7622;42.724;23.250;2023-04-27T11:04:43;94524.75;;;17.67;37.92
15050;BME280;7622;42.724;23.250;2023-04-27T11:07:11;94516.28;;;16.86;39.64
15050;BME280;7622;42.724;23.250;2023-04-27T11:09:41;94515.72;;;16.11;40.32
15050;BME280;7622;42.724;23.250;2023-04-27T11:12:11;94519.66;;;15.92;40.81
15050;BME280;7622;42.724;23.250;2023-04-27T11:14:38;94513.88;;;16.70;40.01
15050;BME280;7622;42.724;23.250;2023-04-27T11:17:05;94505.28;;;16.47;40.36
15050;BME280;7622;42.724;23.250;2023-04-27T11:19:43;94506.84;;;15.83;40.27
15050;BME280;7622;42.724;23.250;2023-04-27T11:22:10;94505.63;;;15.56;41.58
15050;BME280;7622;42.724;23.250;2023-04-27T11:24:45;94507.34;;;15.63;42.07
15050;BME280;7622;42.724;23.250;2023-04-27T11:27:12;94514.34;;;15.25;42.68
15050;BME280;7622;42.724;23.250;2023-04-27T11:29:39;94513.31;;;15.49;42.00
15050;BME280;7622;42.724;23.250;2023-04-27T11:32:06;94514.09;;;15.58;42.33
15050;BME280;7622;42.724;23.250;2023-04-27T11:34:34;94514.16;;;15.87;41.77
15050;BME280;7622;42.724;23.250;2023-04-27T11:37:04;94517.63;;;16.32;40.45
15050;BME280;7622;42.724;23.250;2023-04-27T11:39:32;94522.28;;;16.07;41.31
15050;BME280;7622;42.724;23.250;2023-04-27T11:42:13;94500.50;;;15.92;41.15
15050;BME280;7622;42.724;23.250;2023-04-27T11:44:40;94516.16;;;16.00;41.65
15050;BME280;7622;42.724;23.250;2023-04-27T11:47:07;94509.09;;;16.30;41.06
15050;BME280;7622;42.724;23.250;2023-04-27T11:49:35;94519.81;;;16.79;40.31
15050;BME280;7622;42.724;23.250;2023-04-27T11:52:03;94522.47;;;16.05;41.10
15050;BME280;7622;42.724;23.250;2023-04-27T11:54:30;94516.88;;;16.08;40.58
15050;BME280;7622;42.724;23.250;2023-04-27T11:57:04;94522.13;;;16.23;40.11
15050;BME280;7622;42.724;23.250;2023-04-27T11:59:31;94520.25;;;16.17;40.85
15050;BME280;7622;42.724;23.250;2023-04-27T12:01:58;94514.25;;;16.23;41.04
15050;BME280;7622;42.724;23.250;2023-04-27T12:04:25;94526.00;;;15.83;41.69
15050;BME280;7622;42.724;23.250;2023-04-27T12:06:53;94527.53;;;15.92;41.72
15050;BME280;7622;42.724;23.250;2023-04-27T12:09:19;94522.13;;;16.38;41.36
15050;BME280;7622;42.724;23.250;2023-04-27T12:11:46;94527.44;;;16.00;41.63
15050;BME280;7622;42.724;23.250;2023-04-27T12:14:13;94513.53;;;16.44;40.60
15050;BME280;7622;42.724;23.250;2023-04-27T12:16:40;94529.72;;;16.03;41.52
15050;BME280;7622;42.724;23.250;2023-04-27T12:19:07;94530.81;;;16.24;40.74
15050;BME280;7622;42.724;23.250;2023-04-27T12:21:34;94524.81;;;16.00;40.72
15050;BME280;7622;42.724;23.250;2023-04-27T12:24:02;94529.94;;;15.79;41.53
15050;BME280;7622;42.724;23.250;2023-04-27T12:26:29;94529.91;;;16.17;42.01
15050;BME280;7622;42.724;23.250;2023-04-27T12:28:55;94528.00;;;16.10;42.55
15050;BME280;7622;42.724;23.250;2023-04-27T12:31:22;94528.28;;;16.15;41.01
15050;BME280;7622;42.724;23.250;2023-04-27T12:33:50;94532.97;;;15.53;41.12
15050;BME280;7622;42.724;23.250;2023-04-27T12:36:17;94529.75;;;15.66;42.08
15050;BME280;7622;42.724;23.250;2023-04-27T12:38:43;94522.81;;;15.73;42.44
15050;BME280;7622;42.724;23.250;2023-04-27T12:41:12;94530.19;;;15.55;41.66
15050;BME280;7622;42.724;23.250;2023-04-27T12:43:38;94532.56;;;15.79;42.12
15050;BME280;7622;42.724;23.250;2023-04-27T12:46:07;94529.78;;;15.20;42.22
15050;BME280;7622;42.724;23.250;2023-04-27T12:48:34;94528.41;;;15.24;41.76
15050;BME280;7622;42.724;23.250;2023-04-27T12:51:01;94531.03;;;15.47;41.56
15050;BME280;7622;42.724;23.250;2023-04-27T12:53:27;94512.34;;;15.73;41.24
15050;BME280;7622;42.724;23.250;2023-04-27T12:55:54;94530.59;;;15.81;41.14
15050;BME280;7622;42.724;23.250;2023-04-27T12:58:22;94534.09;;;15.73;41.98
15050;BME280;7622;42.724;23.250;2023-04-27T13:00:49;94544.72;;;15.34;41.47
15050;BME280;7622;42.724;23.250;2023-04-27T13:03:16;94515.75;;;15.13;41.49
15050;BME280;7622;42.724;23.250;2023-04-27T13:05:43;94529.72;;;15.43;41.78